createdAt,value
2022-08-21T00:00:46.374Z,18.17
2022-08-21T00:03:15.479Z,18.14
2022-08-21T00:05:47.091Z,18.10
2022-08-21T00:08:15.808Z,18.07
2022-08-21T00:10:45.252Z,18.04
2022-08-21T00:13:18.764Z,18.00
2022-08-21T00:15:48.756Z,17.95
2022-08-21T00:18:18.474Z,17.91
2022-08-21T00:20:47.751Z,17.90
2022-08-21T00:23:16.080Z,17.85
2022-08-21T00:25:45.170Z,17.81
2022-08-21T00:28:15.499Z,17.76
2022-08-21T00:30:44.776Z,17.73
2022-08-21T00:33:14.068Z,17.69
2022-08-21T00:35:44.807Z,17.65
2022-08-21T00:38:13.753Z,17.62
2022-08-21T00:40:48.264Z,17.58
2022-08-21T00:43:22.551Z,17.56
2022-08-21T00:45:50.862Z,17.54
2022-08-21T00:48:19.407Z,17.49
2022-08-21T00:50:55.438Z,17.44
2022-08-21T00:53:25.379Z,17.41
2022-08-21T00:55:54.362Z,17.40
2022-08-21T00:58:28.754Z,17.35
2022-08-21T01:00:59.032Z,17.30
2022-08-21T01:03:27.690Z,17.26
2022-08-21T01:05:56.649Z,17.25
2022-08-21T01:08:26.064Z,17.22
2022-08-21T01:10:55.961Z,17.18
2022-08-21T01:13:26.462Z,17.15
2022-08-21T01:16:00.275Z,17.13
2022-08-21T01:18:29.465Z,17.10
2022-08-21T01:21:10.235Z,17.06
2022-08-21T01:23:45.985Z,17.03
2022-08-21T01:26:18.365Z,17.02
2022-08-21T01:28:52.274Z,17.00
2022-08-21T01:31:26.178Z,16.97
2022-08-21T01:33:55.711Z,16.96
2022-08-21T01:36:26.261Z,16.94
2022-08-21T01:38:54.728Z,16.93
2022-08-21T01:41:22.977Z,16.92
2022-08-21T01:43:51.545Z,16.91
2022-08-21T01:46:19.748Z,16.88
2022-08-21T01:48:47.914Z,16.84
2022-08-21T01:51:16.047Z,16.81
2022-08-21T01:53:45.841Z,16.77
2022-08-21T01:56:16.695Z,16.74
2022-08-21T01:58:47.921Z,16.72
2022-08-21T02:01:17.169Z,16.68
2022-08-21T02:03:45.454Z,16.65
2022-08-21T02:06:18.777Z,16.63
2022-08-21T02:08:51.436Z,16.60
2022-08-21T02:11:19.788Z,16.57
2022-08-21T02:13:48.026Z,16.53
2022-08-21T02:16:19.200Z,16.49
2022-08-21T02:18:48.310Z,16.45
2022-08-21T02:21:16.523Z,16.43
2022-08-21T02:23:44.897Z,16.39
2022-08-21T02:26:14.982Z,16.35
2022-08-21T02:28:43.673Z,16.34
2022-08-21T02:31:12.530Z,16.33
2022-08-21T02:33:41.915Z,16.31
2022-08-21T02:36:11.479Z,16.31
2022-08-21T02:38:41.974Z,16.30
2022-08-21T02:41:15.199Z,16.32
2022-08-21T02:43:44.067Z,16.30
2022-08-21T02:46:15.401Z,16.31
2022-08-21T02:48:43.922Z,16.31
2022-08-21T02:51:15.991Z,16.32
2022-08-21T02:53:44.768Z,16.32
2022-08-21T02:56:18.791Z,16.31
2022-08-21T02:58:50.222Z,16.31
2022-08-21T03:01:18.438Z,16.34
2022-08-21T03:03:50.926Z,16.34
2022-08-21T03:06:22.543Z,16.34
2022-08-21T03:08:51.833Z,16.35
2022-08-21T03:11:21.775Z,16.33
2022-08-21T03:13:49.906Z,16.33
2022-08-21T03:16:19.722Z,16.31
2022-08-21T03:18:48.024Z,16.32
2022-08-21T03:21:16.989Z,16.31
2022-08-21T03:23:45.020Z,16.32
2022-08-21T03:26:13.426Z,16.31
2022-08-21T03:28:43.443Z,16.30
2022-08-21T03:31:11.494Z,16.29
2022-08-21T03:33:39.632Z,16.28
2022-08-21T03:36:10.228Z,16.25
2022-08-21T03:38:39.950Z,16.26
2022-08-21T03:41:09.455Z,16.26
2022-08-21T03:43:39.575Z,16.24
2022-08-21T03:46:09.328Z,16.23
2022-08-21T03:48:40.449Z,16.20
2022-08-21T03:51:09.099Z,16.20
2022-08-21T03:53:37.332Z,16.17
2022-08-21T03:56:06.669Z,16.16
2022-08-21T03:58:34.883Z,16.14
2022-08-21T04:01:05.503Z,16.11
2022-08-21T04:03:37.838Z,16.10
2022-08-21T04:06:07.161Z,16.11
2022-08-21T04:08:35.993Z,16.13
2022-08-21T04:11:04.477Z,16.13
2022-08-21T04:13:32.749Z,16.13
2022-08-21T04:16:00.883Z,16.13
2022-08-21T04:18:29.162Z,16.12
2022-08-21T04:21:03.209Z,16.10
2022-08-21T04:23:33.104Z,16.09
2022-08-21T04:26:01.358Z,16.07
2022-08-21T04:28:31.135Z,16.06
2022-08-21T04:31:00.125Z,16.04
2022-08-21T04:33:28.343Z,16.04
2022-08-21T04:35:57.945Z,16.02
2022-08-21T04:38:27.143Z,16.02
2022-08-21T04:41:05.721Z,16.01
2022-08-21T04:43:34.240Z,16.00
2022-08-21T04:46:02.862Z,16.01
2022-08-21T04:48:31.112Z,16.00
2022-08-21T04:51:07.737Z,16.01
2022-08-21T04:53:40.835Z,16.02
2022-08-21T04:56:13.757Z,16.03
2022-08-21T04:58:42.748Z,16.07
2022-08-21T05:01:21.570Z,16.08
2022-08-21T05:03:51.837Z,16.11
2022-08-21T05:06:22.206Z,16.15
2022-08-21T05:09:01.486Z,16.18
2022-08-21T05:11:31.678Z,16.23
2022-08-21T05:14:00.220Z,16.28
2022-08-21T05:16:36.708Z,16.34
2022-08-21T05:19:06.450Z,16.39
2022-08-21T05:21:36.187Z,16.45
2022-08-21T05:24:05.178Z,16.52
2022-08-21T05:26:33.663Z,16.60
2022-08-21T05:29:13.587Z,16.66
2022-08-21T05:31:41.742Z,16.73
2022-08-21T05:34:10.075Z,16.79
2022-08-21T05:36:39.761Z,16.87
2022-08-21T05:39:07.911Z,16.94
2022-08-21T05:41:36.094Z,17.03
2022-08-21T05:44:04.903Z,17.12
2022-08-21T05:46:38.585Z,17.21
2022-08-21T05:49:06.724Z,17.29
2022-08-21T05:51:35.000Z,17.39
2022-08-21T05:54:05.380Z,17.46
2022-08-21T05:56:33.778Z,17.56
2022-08-21T05:59:01.970Z,17.65
2022-08-21T06:01:31.809Z,17.75
2022-08-21T06:04:00.172Z,17.83
2022-08-21T06:06:29.637Z,17.93
2022-08-21T06:08:57.685Z,18.01
2022-08-21T06:11:29.148Z,18.09
2022-08-21T06:14:01.009Z,18.20
2022-08-21T06:16:30.566Z,18.29
2022-08-21T06:19:02.637Z,18.38
2022-08-21T06:21:31.330Z,18.45
2022-08-21T06:23:59.547Z,18.53
2022-08-21T06:26:30.148Z,18.60
2022-08-21T06:28:58.343Z,18.69
2022-08-21T06:31:29.678Z,18.76
2022-08-21T06:33:58.310Z,18.85
2022-08-21T06:36:26.469Z,18.92
2022-08-21T06:38:54.559Z,19.01
2022-08-21T06:41:26.464Z,19.07
2022-08-21T06:43:58.238Z,19.15
2022-08-21T06:46:28.323Z,19.23
2022-08-21T06:48:57.007Z,19.33
2022-08-21T06:51:26.817Z,19.44
2022-08-21T06:53:55.373Z,19.57
2022-08-21T06:56:23.559Z,19.69
2022-08-21T06:58:51.826Z,19.82
2022-08-21T07:01:22.172Z,19.92
2022-08-21T07:03:53.859Z,20.01
2022-08-21T07:06:21.955Z,20.12
2022-08-21T07:08:50.104Z,20.24
2022-08-21T07:11:22.257Z,20.37
2022-08-21T07:13:53.512Z,20.46
2022-08-21T07:16:23.974Z,20.55
2022-08-21T07:18:52.120Z,20.67
2022-08-21T07:21:25.230Z,20.75
2022-08-21T07:23:54.657Z,20.87
2022-08-21T07:26:24.906Z,20.97
2022-08-21T07:28:53.677Z,21.07
2022-08-21T07:31:26.273Z,21.16
2022-08-21T07:33:56.461Z,21.27
2022-08-21T07:36:24.990Z,21.37
2022-08-21T07:38:53.215Z,21.46
2022-08-21T07:41:25.616Z,21.57
2022-08-21T07:43:53.823Z,21.66
2022-08-21T07:46:23.296Z,21.79
2022-08-21T07:48:51.429Z,21.90
2022-08-21T07:51:26.456Z,21.93
2022-08-21T07:53:57.274Z,22.01
2022-08-21T07:56:25.544Z,22.07
2022-08-21T07:58:53.792Z,22.16
2022-08-21T08:01:24.609Z,22.20
2022-08-21T08:03:53.070Z,22.27
2022-08-21T08:06:21.258Z,22.38
2022-08-21T08:08:49.631Z,22.52
2022-08-21T08:11:18.461Z,22.59
2022-08-21T08:13:49.710Z,22.63
2022-08-21T08:16:18.324Z,22.70
2022-08-21T08:18:48.363Z,22.78
2022-08-21T08:21:17.082Z,22.83
2022-08-21T08:23:46.056Z,22.91
2022-08-21T08:26:14.637Z,23.02
2022-08-21T08:28:42.752Z,23.13
2022-08-21T08:31:11.015Z,23.17
2022-08-21T08:33:39.667Z,23.18
2022-08-21T08:36:16.741Z,23.19
2022-08-21T08:38:45.072Z,23.26
2022-08-21T08:41:17.486Z,23.37
2022-08-21T08:43:53.913Z,23.45
2022-08-21T08:46:31.271Z,23.50
2022-08-21T08:49:05.181Z,23.60
2022-08-21T08:51:45.564Z,23.69
2022-08-21T08:54:20.165Z,23.70
2022-08-21T08:56:48.732Z,23.70
2022-08-21T08:59:21.050Z,23.79
2022-08-21T09:01:49.559Z,23.90
2022-08-21T09:04:24.859Z,24.01
2022-08-21T09:07:08.666Z,24.15
2022-08-21T09:09:54.379Z,24.22
2022-08-21T09:12:35.684Z,24.24
2022-08-21T09:15:14.937Z,24.32
2022-08-21T09:18:07.952Z,24.34
2022-08-21T09:20:43.459Z,24.44
2022-08-21T09:23:27.392Z,24.51
2022-08-21T09:26:03.532Z,24.57
2022-08-21T09:28:35.699Z,24.60
2022-08-21T09:31:08.418Z,24.67
2022-08-21T09:33:36.978Z,24.78
2022-08-21T09:36:06.350Z,24.84
2022-08-21T09:38:38.879Z,24.92
2022-08-21T09:41:10.858Z,25.03
2022-08-21T09:43:40.522Z,25.09
2022-08-21T09:46:12.668Z,25.15
2022-08-21T09:48:47.599Z,25.20
2022-08-21T09:51:20.175Z,25.29
2022-08-21T09:53:55.103Z,25.43
2022-08-21T09:56:51.298Z,25.55
2022-08-21T09:59:27.072Z,25.72
2022-08-21T10:01:56.730Z,25.88
2022-08-21T10:04:30.301Z,25.92
2022-08-21T10:07:09.777Z,25.93
2022-08-21T10:09:39.927Z,26.11
2022-08-21T10:12:19.149Z,26.20
2022-08-21T10:14:57.069Z,26.36
2022-08-21T10:17:33.698Z,26.57
2022-08-21T10:20:08.037Z,26.77
2022-08-21T10:22:47.389Z,26.98
2022-08-21T10:25:27.554Z,27.22
2022-08-21T10:28:13.521Z,27.41
2022-08-21T10:30:58.710Z,27.51
2022-08-21T10:33:37.473Z,27.54
2022-08-21T10:36:15.741Z,27.54
2022-08-21T10:39:25.243Z,27.28
2022-08-21T10:42:21.848Z,26.91
2022-08-21T10:45:13.436Z,26.98
2022-08-21T10:47:56.050Z,27.24
2022-08-21T10:50:33.682Z,27.42
2022-08-21T10:53:31.829Z,27.31
2022-08-21T10:56:07.294Z,27.20
2022-08-21T10:58:44.632Z,27.43
2022-08-21T11:01:20.378Z,27.93
2022-08-21T11:03:54.301Z,28.19
2022-08-21T11:06:27.588Z,28.21
2022-08-21T11:09:02.037Z,28.21
2022-08-21T11:11:38.049Z,28.24
2022-08-21T11:14:32.092Z,28.22
2022-08-21T11:17:12.166Z,28.34
2022-08-21T11:20:06.638Z,28.50
2022-08-21T11:22:54.549Z,28.73
2022-08-21T11:25:33.763Z,28.91
2022-08-21T11:28:14.603Z,28.84
2022-08-21T11:30:57.029Z,28.62
2022-08-21T11:33:45.182Z,28.41
2022-08-21T11:36:25.095Z,28.22
2022-08-21T11:39:00.787Z,28.10
2022-08-21T11:41:34.402Z,27.90
2022-08-21T11:44:14.060Z,27.67
2022-08-21T11:46:52.020Z,27.42
2022-08-21T11:49:38.377Z,27.24
2022-08-21T11:52:15.847Z,27.09
2022-08-21T11:54:49.085Z,26.97
2022-08-21T11:57:24.072Z,26.88
2022-08-21T12:00:01.809Z,26.79
2022-08-21T12:02:37.367Z,26.68
2022-08-21T12:05:10.542Z,26.54
2022-08-21T12:07:42.043Z,26.41
2022-08-21T12:10:14.264Z,26.26
2022-08-21T12:12:46.205Z,26.14
2022-08-21T12:15:28.387Z,25.95
2022-08-21T12:18:05.997Z,25.66
2022-08-21T12:20:50.841Z,25.46
2022-08-21T12:23:31.131Z,25.44
2022-08-21T12:26:27.497Z,25.57
2022-08-21T12:29:17.098Z,25.88
2022-08-21T12:31:56.414Z,26.99
2022-08-21T12:34:38.580Z,28.17
2022-08-21T12:37:17.488Z,29.24
2022-08-21T12:39:49.118Z,30.02
2022-08-21T12:42:21.354Z,30.67
2022-08-21T12:44:55.195Z,31.40
2022-08-21T12:47:31.974Z,31.95
2022-08-21T12:50:07.992Z,32.37
2022-08-21T12:52:42.650Z,32.88
2022-08-21T12:55:14.584Z,33.07
2022-08-21T12:57:43.830Z,32.76
2022-08-21T13:00:21.992Z,32.08
2022-08-21T13:02:52.981Z,31.71
2022-08-21T13:05:36.552Z,31.35
2022-08-21T13:08:08.915Z,30.98
2022-08-21T13:10:38.405Z,30.91
2022-08-21T13:13:13.217Z,31.60
2022-08-21T13:15:47.657Z,32.04
2022-08-21T13:18:25.413Z,31.65
2022-08-21T13:21:05.273Z,31.29
2022-08-21T13:23:49.580Z,31.43
2022-08-21T13:26:21.200Z,31.48
2022-08-21T13:28:51.319Z,31.13
2022-08-21T13:31:24.292Z,30.66
2022-08-21T13:33:53.242Z,30.33
2022-08-21T13:36:30.162Z,30.02
2022-08-21T13:38:58.701Z,29.85
2022-08-21T13:41:30.269Z,29.68
2022-08-21T13:44:02.449Z,29.56
2022-08-21T13:46:38.189Z,29.34
2022-08-21T13:49:08.489Z,29.03
2022-08-21T13:51:39.086Z,28.74
2022-08-21T13:54:19.269Z,28.54
2022-08-21T13:56:48.645Z,28.37
2022-08-21T13:59:29.286Z,28.10
2022-08-21T14:02:01.935Z,27.94
2022-08-21T14:04:37.785Z,27.83
2022-08-21T14:07:19.617Z,27.84
2022-08-21T14:09:48.956Z,28.00
2022-08-21T14:12:25.279Z,28.02
2022-08-21T14:14:55.719Z,28.06
2022-08-21T14:17:33.315Z,28.09
2022-08-21T14:20:02.831Z,28.15
2022-08-21T14:22:44.339Z,28.32
2022-08-21T14:25:15.865Z,28.46
2022-08-21T14:27:50.845Z,28.61
2022-08-21T14:30:23.825Z,28.73
2022-08-21T14:32:53.070Z,28.80
2022-08-21T14:35:23.588Z,28.96
2022-08-21T14:37:55.535Z,29.16
2022-08-21T14:40:25.735Z,29.38
2022-08-21T14:42:54.763Z,29.64
2022-08-21T14:45:31.343Z,29.68
2022-08-21T14:48:00.681Z,29.59
2022-08-21T14:50:28.895Z,29.47
2022-08-21T14:52:58.560Z,29.41
2022-08-21T14:55:28.166Z,29.47
2022-08-21T14:57:59.534Z,29.61
2022-08-21T15:00:35.563Z,29.89
2022-08-21T15:03:05.171Z,30.64
2022-08-21T15:05:34.138Z,32.23
2022-08-21T15:08:05.202Z,33.80
2022-08-21T15:10:41.340Z,35.26
2022-08-21T15:13:21.181Z,36.56
2022-08-21T15:15:53.627Z,36.91
2022-08-21T15:18:22.280Z,36.99
2022-08-21T15:20:50.939Z,37.42
2022-08-21T15:23:21.249Z,37.05
2022-08-21T15:25:51.045Z,37.29
2022-08-21T15:28:21.253Z,37.04
2022-08-21T15:30:53.726Z,35.86
2022-08-21T15:33:22.438Z,34.48
2022-08-21T15:35:50.696Z,33.30
2022-08-21T15:38:20.251Z,32.33
2022-08-21T15:40:52.331Z,31.56
2022-08-21T15:43:29.925Z,30.81
2022-08-21T15:46:00.983Z,30.18
2022-08-21T15:48:31.043Z,29.75
2022-08-21T15:50:59.152Z,29.42
2022-08-21T15:53:28.752Z,29.13
2022-08-21T15:55:57.030Z,29.04
2022-08-21T15:58:25.319Z,28.96
2022-08-21T16:00:53.520Z,29.02
2022-08-21T16:03:22.922Z,29.04
2022-08-21T16:05:53.264Z,29.10
2022-08-21T16:08:22.005Z,29.20
2022-08-21T16:10:52.110Z,29.01
2022-08-21T16:13:27.137Z,28.62
2022-08-21T16:15:55.661Z,28.22
2022-08-21T16:18:26.529Z,27.93
2022-08-21T16:20:54.786Z,27.70
2022-08-21T16:23:23.072Z,27.58
2022-08-21T16:25:52.769Z,27.54
2022-08-21T16:28:22.642Z,27.47
2022-08-21T16:30:52.493Z,27.53
2022-08-21T16:33:28.734Z,27.56
2022-08-21T16:35:57.009Z,27.59
2022-08-21T16:38:25.106Z,27.62
2022-08-21T16:40:55.036Z,27.60
2022-08-21T16:43:26.338Z,27.50
2022-08-21T16:45:55.204Z,27.26
2022-08-21T16:48:24.366Z,27.08
2022-08-21T16:50:52.694Z,26.92
2022-08-21T16:53:20.812Z,26.72
2022-08-21T16:55:50.443Z,26.50
2022-08-21T16:58:26.637Z,26.32
2022-08-21T17:00:55.477Z,26.18
2022-08-21T17:03:30.340Z,26.00
2022-08-21T17:05:58.486Z,25.91
2022-08-21T17:08:26.770Z,25.85
2022-08-21T17:10:55.979Z,25.76
2022-08-21T17:13:27.223Z,25.73
2022-08-21T17:15:55.828Z,25.65
2022-08-21T17:18:26.534Z,25.56
2022-08-21T17:20:55.010Z,25.48
2022-08-21T17:23:23.138Z,25.40
2022-08-21T17:25:55.970Z,25.34
2022-08-21T17:28:30.561Z,25.30
2022-08-21T17:31:02.386Z,25.21
2022-08-21T17:33:42.772Z,25.11
2022-08-21T17:36:11.293Z,24.99
2022-08-21T17:38:39.747Z,24.95
2022-08-21T17:41:08.469Z,24.89
2022-08-21T17:43:39.161Z,24.85
2022-08-21T17:46:07.703Z,24.82
2022-08-21T17:48:35.836Z,24.79
2022-08-21T17:51:04.045Z,24.76
2022-08-21T17:53:32.249Z,24.68
2022-08-21T17:56:00.348Z,24.63
2022-08-21T17:58:28.513Z,24.58
2022-08-21T18:00:58.587Z,24.57
2022-08-21T18:03:26.783Z,24.54
2022-08-21T18:05:56.909Z,24.53
2022-08-21T18:08:25.143Z,24.47
2022-08-21T18:10:53.884Z,24.40
2022-08-21T18:13:28.484Z,24.31
2022-08-21T18:16:01.235Z,24.20
2022-08-21T18:18:34.661Z,24.12
2022-08-21T18:21:02.785Z,24.06
2022-08-21T18:23:44.220Z,24.00
2022-08-21T18:26:16.175Z,23.93
2022-08-21T18:28:45.104Z,23.83
2022-08-21T18:31:15.183Z,23.72
2022-08-21T18:33:57.981Z,23.64
2022-08-21T18:36:27.949Z,23.56
2022-08-21T18:39:13.430Z,23.49
2022-08-21T18:41:48.807Z,23.41
2022-08-21T18:44:19.989Z,23.36
2022-08-21T18:46:56.342Z,23.30
2022-08-21T18:49:24.545Z,23.26
2022-08-21T18:51:52.753Z,23.17
2022-08-21T18:54:21.110Z,23.04
2022-08-21T18:56:51.328Z,22.89
2022-08-21T18:59:30.738Z,22.73
2022-08-21T19:02:00.352Z,22.60
2022-08-21T19:07:20.447Z,22.34
2022-08-21T19:10:07.560Z,22.23
2022-08-21T19:12:39.426Z,22.11
2022-08-21T19:15:11.024Z,22.00
2022-08-21T19:17:41.698Z,21.92
2022-08-21T19:20:25.640Z,21.83
2022-08-21T19:22:56.336Z,21.77
2022-08-21T19:25:33.787Z,21.70
2022-08-21T19:28:11.280Z,21.63
2022-08-21T19:30:45.765Z,21.57
2022-08-21T19:33:23.996Z,21.50
2022-08-21T19:35:52.825Z,21.44
2022-08-21T19:38:21.428Z,21.38
2022-08-21T19:40:49.962Z,21.33
2022-08-21T19:43:23.256Z,21.28
2022-08-21T19:45:54.381Z,21.22
2022-08-21T19:48:24.286Z,21.17
2022-08-21T19:50:53.137Z,21.10
2022-08-21T19:53:21.777Z,21.03
2022-08-21T19:55:50.084Z,20.97
2022-08-21T19:58:35.268Z,20.90
2022-08-21T20:01:11.566Z,20.85
2022-08-21T20:03:54.009Z,20.78
2022-08-21T20:06:25.549Z,20.73
2022-08-21T20:08:55.607Z,20.68
2022-08-21T20:14:22.438Z,20.58
2022-08-21T20:16:52.709Z,20.55
2022-08-21T20:19:23.262Z,20.54
2022-08-21T20:21:51.702Z,20.50
2022-08-21T20:24:19.780Z,20.47
2022-08-21T20:26:49.974Z,20.45
2022-08-21T20:29:23.846Z,20.42
2022-08-21T20:31:54.570Z,20.39
2022-08-21T20:37:13.719Z,20.31
2022-08-21T20:40:01.857Z,20.26
2022-08-21T20:42:30.249Z,20.22
2022-08-21T20:44:58.495Z,20.19
2022-08-21T20:47:26.620Z,20.13
2022-08-21T20:50:05.105Z,20.06
2022-08-21T20:52:36.997Z,20.04
2022-08-21T20:55:13.898Z,20.00
2022-08-21T20:57:50.985Z,19.97
2022-08-21T21:00:22.859Z,19.96
2022-08-21T21:03:01.170Z,19.94
2022-08-21T21:05:39.766Z,19.94
2022-08-21T21:08:16.031Z,19.92
2022-08-21T21:10:50.748Z,19.91
2022-08-21T21:13:27.723Z,19.91
2022-08-21T21:16:01.438Z,19.91
2022-08-21T21:18:36.581Z,19.92
2022-08-21T21:21:20.557Z,19.94
2022-08-21T21:23:56.860Z,19.99
2022-08-21T21:26:32.135Z,20.05
2022-08-21T21:29:13.097Z,20.06
2022-08-21T21:31:42.536Z,20.08
2022-08-21T21:34:17.101Z,20.03
2022-08-21T21:37:01.372Z,19.97
2022-08-21T21:39:36.629Z,19.93
2022-08-21T21:42:13.466Z,19.90
2022-08-21T21:45:00.171Z,19.86
2022-08-21T21:47:45.248Z,19.81
2022-08-21T21:50:34.549Z,19.73
2022-08-21T21:53:24.431Z,19.64
2022-08-21T21:56:08.196Z,19.60
2022-08-21T21:58:55.005Z,19.56
2022-08-21T22:01:34.735Z,19.53
2022-08-21T22:04:10.122Z,19.53
2022-08-21T22:06:51.209Z,19.52
2022-08-21T22:09:42.286Z,19.54
2022-08-21T22:12:29.409Z,19.58
2022-08-21T22:14:58.243Z,19.63
2022-08-21T22:17:36.385Z,19.68
2022-08-21T22:20:25.096Z,19.73
2022-08-21T22:22:57.211Z,19.79
2022-08-21T22:25:31.813Z,19.83
2022-08-21T22:28:06.998Z,19.85
2022-08-21T22:30:45.353Z,19.86
2022-08-21T22:33:20.217Z,19.85
2022-08-21T22:35:51.588Z,19.83
2022-08-21T22:38:33.320Z,19.76
2022-08-21T22:44:07.497Z,19.63
2022-08-21T22:46:50.258Z,19.57
2022-08-21T22:49:31.821Z,19.51
2022-08-21T22:52:11.651Z,19.47
2022-08-21T22:54:45.241Z,19.45
2022-08-21T22:57:28.192Z,19.41
2022-08-21T23:00:00.626Z,19.38
2022-08-21T23:02:38.737Z,19.34
2022-08-21T23:05:19.286Z,19.31
2022-08-21T23:07:50.744Z,19.31
2022-08-21T23:10:29.348Z,19.29
2022-08-21T23:13:09.541Z,19.27
2022-08-21T23:15:49.786Z,19.23
2022-08-21T23:18:29.739Z,19.20
2022-08-21T23:21:10.873Z,19.18
2022-08-21T23:23:59.279Z,19.14
2022-08-21T23:26:34.235Z,19.11
2022-08-21T23:29:24.700Z,19.08
2022-08-21T23:32:04.603Z,19.06
2022-08-21T23:34:44.141Z,19.03
2022-08-21T23:37:51.435Z,19.00
2022-08-21T23:40:51.339Z,18.98
2022-08-21T23:43:43.354Z,18.94
2022-08-21T23:46:35.792Z,18.92
2022-08-21T23:49:22.531Z,18.91
2022-08-21T23:55:10.537Z,18.87
2022-08-21T23:57:54.665Z,18.84
